createdAt,value
2018-11-14T00:00:12.527Z,7.71
2018-11-14T00:02:46.034Z,7.67
2018-11-14T00:05:19.519Z,7.68
2018-11-14T00:07:53.407Z,7.71
2018-11-14T00:10:26.386Z,7.72
2018-11-14T00:12:59.160Z,7.70
2018-11-14T00:15:35.890Z,7.69
2018-11-14T00:18:08.641Z,7.67
2018-11-14T00:20:42.445Z,7.64
2018-11-14T00:23:19.071Z,7.63
2018-11-14T00:25:53.046Z,7.63
2018-11-14T00:28:26.197Z,7.61
2018-11-14T00:31:00.626Z,7.58
2018-11-14T00:33:34.256Z,7.56
2018-11-14T00:36:07.319Z,7.58
2018-11-14T00:38:40.231Z,7.65
2018-11-14T00:41:12.774Z,7.67
2018-11-14T00:43:45.304Z,7.77
2018-11-14T00:46:19.213Z,7.81
2018-11-14T00:48:51.780Z,7.84
2018-11-14T00:51:25.614Z,7.89
2018-11-14T00:53:58.676Z,7.90
2018-11-14T00:56:32.172Z,7.89
2018-11-14T00:59:06.220Z,7.94
2018-11-14T01:01:40.021Z,7.95
2018-11-14T01:04:12.917Z,7.94
2018-11-14T01:06:45.581Z,7.92
2018-11-14T01:09:20.991Z,7.89
2018-11-14T01:11:54.582Z,7.84
2018-11-14T01:14:27.289Z,7.83
2018-11-14T01:17:00.088Z,7.98
2018-11-14T01:19:32.864Z,8.12
2018-11-14T01:22:08.146Z,8.07
2018-11-14T01:24:40.966Z,8.01
2018-11-14T01:27:13.586Z,7.92
2018-11-14T01:29:46.737Z,7.86
2018-11-14T01:32:20.266Z,7.84
2018-11-14T01:34:55.473Z,7.86
2018-11-14T01:37:28.381Z,7.85
2018-11-14T01:40:00.967Z,7.83
2018-11-14T01:42:34.323Z,7.78
2018-11-14T01:45:10.463Z,7.76
2018-11-14T01:47:45.540Z,7.71
2018-11-14T01:50:19.680Z,7.70
2018-11-14T01:52:52.233Z,7.71
2018-11-14T01:55:24.762Z,7.72
2018-11-14T01:58:02.426Z,7.71
2018-11-14T02:00:35.180Z,7.69
2018-11-14T02:03:07.892Z,7.70
2018-11-14T02:05:41.287Z,7.71
2018-11-14T02:08:13.777Z,7.71
2018-11-14T02:10:51.261Z,7.70
2018-11-14T02:13:24.236Z,7.63
2018-11-14T02:15:56.765Z,7.59
2018-11-14T02:18:30.954Z,7.57
2018-11-14T02:21:03.913Z,7.57
2018-11-14T02:23:36.781Z,7.53
2018-11-14T02:26:09.431Z,7.55
2018-11-14T02:28:43.446Z,7.54
2018-11-14T02:31:16.286Z,7.52
2018-11-14T02:33:49.234Z,7.53
2018-11-14T02:36:22.187Z,7.52
2018-11-14T02:38:54.859Z,7.50
2018-11-14T02:41:27.370Z,7.52
2018-11-14T02:44:00.302Z,7.55
2018-11-14T02:46:34.192Z,7.60
2018-11-14T02:49:07.568Z,7.55
2018-11-14T02:51:41.412Z,7.51
2018-11-14T02:54:13.959Z,7.47
2018-11-14T02:56:48.373Z,7.45
2018-11-14T02:59:21.365Z,7.47
2018-11-14T03:01:53.885Z,7.48
2018-11-14T03:04:27.750Z,7.47
2018-11-14T03:07:00.936Z,7.48
2018-11-14T03:09:34.017Z,7.48
2018-11-14T03:12:09.586Z,7.53
2018-11-14T03:14:42.788Z,7.54
2018-11-14T03:17:15.913Z,7.52
2018-11-14T03:19:48.534Z,7.46
2018-11-14T03:22:23.966Z,7.45
2018-11-14T03:24:57.330Z,7.47
2018-11-14T03:27:29.923Z,7.45
2018-11-14T03:30:06.377Z,7.39
2018-11-14T03:32:39.553Z,7.38
2018-11-14T03:35:12.939Z,7.36
2018-11-14T03:37:45.776Z,7.33
2018-11-14T03:40:18.319Z,7.31
2018-11-14T03:42:50.928Z,7.28
2018-11-14T03:45:23.950Z,7.23
2018-11-14T03:47:56.476Z,7.18
2018-11-14T03:50:29.128Z,7.15
2018-11-14T03:53:03.310Z,7.11
2018-11-14T03:55:37.277Z,7.04
2018-11-14T03:58:09.864Z,7.00
2018-11-14T04:00:42.925Z,7.01
2018-11-14T04:03:15.665Z,6.98
2018-11-14T04:05:48.492Z,6.95
2018-11-14T04:08:21.693Z,7.00
2018-11-14T04:10:54.198Z,7.00
2018-11-14T04:13:27.613Z,6.94
2018-11-14T04:16:01.307Z,6.86
2018-11-14T04:18:34.026Z,6.77
2018-11-14T04:21:06.999Z,6.71
2018-11-14T04:23:55.913Z,6.67
2018-11-14T04:26:28.455Z,6.67
2018-11-14T04:29:01.135Z,6.68
2018-11-14T04:31:34.130Z,6.75
2018-11-14T04:34:08.779Z,6.86
2018-11-14T04:36:42.053Z,6.87
2018-11-14T04:39:15.171Z,6.88
2018-11-14T04:41:47.837Z,6.88
2018-11-14T04:44:20.453Z,6.92
2018-11-14T04:46:53.365Z,6.98
2018-11-14T04:49:26.042Z,7.04
2018-11-14T04:52:00.312Z,7.04
2018-11-14T04:54:36.245Z,7.06
2018-11-14T04:57:09.489Z,7.04
2018-11-14T04:59:42.504Z,7.05
2018-11-14T05:02:16.711Z,7.06
2018-11-14T05:04:50.749Z,7.05
2018-11-14T05:07:23.449Z,7.01
2018-11-14T05:09:56.257Z,7.02
2018-11-14T05:12:30.342Z,7.01
2018-11-14T05:15:04.873Z,6.97
2018-11-14T05:17:38.990Z,6.96
2018-11-14T05:20:13.308Z,6.91
2018-11-14T05:22:46.162Z,6.93
2018-11-14T05:25:20.922Z,6.89
2018-11-14T05:27:53.542Z,6.84
2018-11-14T05:30:26.186Z,6.81
2018-11-14T05:33:00.835Z,6.79
2018-11-14T05:35:33.540Z,6.76
2018-11-14T05:38:06.531Z,6.71
2018-11-14T05:40:40.587Z,6.67
2018-11-14T05:43:16.881Z,6.63
2018-11-14T05:45:49.958Z,6.62
2018-11-14T05:48:27.343Z,6.60
2018-11-14T05:51:01.814Z,6.53
2018-11-14T05:53:36.743Z,6.48
2018-11-14T05:56:09.690Z,6.43
2018-11-14T05:58:42.433Z,6.43
2018-11-14T06:01:15.047Z,6.44
2018-11-14T06:03:49.540Z,6.44
2018-11-14T06:06:24.006Z,6.42
2018-11-14T06:09:00.562Z,6.45
2018-11-14T06:11:33.790Z,6.56
2018-11-14T06:14:07.019Z,6.61
2018-11-14T06:16:43.658Z,6.65
2018-11-14T06:19:19.453Z,6.68
2018-11-14T06:21:52.335Z,6.67
2018-11-14T06:24:25.074Z,6.68
2018-11-14T06:27:00.479Z,6.66
2018-11-14T06:29:33.682Z,6.68
2018-11-14T06:32:07.069Z,6.61
2018-11-14T06:34:40.234Z,6.58
2018-11-14T06:37:12.890Z,6.54
2018-11-14T06:39:45.601Z,6.50
2018-11-14T06:42:19.619Z,6.48
2018-11-14T06:44:53.412Z,6.48
2018-11-14T06:47:26.329Z,6.45
2018-11-14T06:49:59.261Z,6.43
2018-11-14T06:52:33.462Z,6.43
2018-11-14T06:55:09.164Z,6.47
2018-11-14T06:57:42.543Z,6.56
2018-11-14T07:00:23.501Z,6.57
2018-11-14T07:02:58.142Z,6.61
2018-11-14T07:05:31.664Z,6.67
2018-11-14T07:08:05.961Z,6.69
2018-11-14T07:10:39.157Z,6.72
2018-11-14T07:13:12.578Z,6.73
2018-11-14T07:15:49.123Z,6.80
2018-11-14T07:18:22.858Z,6.85
2018-11-14T07:20:55.965Z,6.92
2018-11-14T07:23:29.790Z,6.97
2018-11-14T07:26:03.351Z,7.04
2018-11-14T07:28:36.354Z,7.04
2018-11-14T07:31:11.454Z,7.06
2018-11-14T07:33:44.147Z,7.10
2018-11-14T07:36:16.916Z,7.17
2018-11-14T07:38:52.562Z,7.23
2018-11-14T07:41:40.353Z,7.27
2018-11-14T07:44:13.500Z,7.33
2018-11-14T07:46:50.047Z,7.40
2018-11-14T07:49:23.315Z,7.39
2018-11-14T07:55:06.882Z,7.39
2018-11-14T07:57:42.435Z,7.38
2018-11-14T08:00:17.030Z,7.29
2018-11-14T08:02:51.725Z,7.28
2018-11-14T08:05:24.623Z,7.29
2018-11-14T08:07:57.865Z,7.34
2018-11-14T08:10:33.642Z,7.42
2018-11-14T08:13:08.814Z,7.52
2018-11-14T08:15:45.224Z,7.67
2018-11-14T08:18:22.261Z,7.79
2018-11-14T08:20:57.238Z,7.92
2018-11-14T08:23:35.706Z,7.98
2018-11-14T08:26:09.644Z,8.05
2018-11-14T08:28:44.644Z,8.09
2018-11-14T08:31:18.671Z,8.21
2018-11-14T08:33:52.680Z,8.31
2018-11-14T08:36:26.942Z,8.31
2018-11-14T08:39:00.680Z,8.38
2018-11-14T08:41:36.395Z,8.43
2018-11-14T08:44:10.309Z,8.48
2018-11-14T08:46:44.725Z,8.51
2018-11-14T08:49:19.210Z,8.55
2018-11-14T08:51:54.410Z,8.60
2018-11-14T08:54:29.331Z,8.61
2018-11-14T08:57:04.183Z,8.68
2018-11-14T08:59:37.653Z,8.77
2018-11-14T09:02:10.215Z,8.79
2018-11-14T09:04:46.389Z,8.85
2018-11-14T09:07:20.565Z,8.90
2018-11-14T09:09:54.405Z,8.95
2018-11-14T09:12:30.250Z,8.98
2018-11-14T09:15:09.288Z,9.07
2018-11-14T09:17:47.397Z,9.14
2018-11-14T09:20:23.830Z,9.23
2018-11-14T09:22:56.494Z,9.31
2018-11-14T09:25:32.281Z,9.38
2018-11-14T09:28:07.760Z,9.43
2018-11-14T09:30:44.898Z,9.51
2018-11-14T09:33:35.886Z,9.58
2018-11-14T09:36:11.690Z,9.60
2018-11-14T09:38:52.370Z,9.64
2018-11-14T09:41:28.593Z,9.63
2018-11-14T09:44:02.412Z,9.68
2018-11-14T09:46:35.994Z,9.75
2018-11-14T09:51:46.136Z,9.90
2018-11-14T09:54:20.250Z,10.02
2018-11-14T09:56:54.986Z,10.36
2018-11-14T09:59:28.016Z,11.05
2018-11-14T10:02:02.856Z,11.65
2018-11-14T10:04:38.252Z,12.05
2018-11-14T10:07:12.440Z,12.37
2018-11-14T10:09:48.452Z,12.57
2018-11-14T10:12:28.167Z,12.74
2018-11-14T10:15:07.398Z,12.80
2018-11-14T10:17:45.798Z,12.88
2018-11-14T10:20:23.527Z,13.01
2018-11-14T10:23:01.850Z,13.20
2018-11-14T10:25:38.878Z,13.14
2018-11-14T10:28:11.954Z,13.09
2018-11-14T10:30:46.172Z,13.21
2018-11-14T10:33:19.959Z,13.20
2018-11-14T10:35:55.423Z,13.29
2018-11-14T10:38:31.022Z,13.49
2018-11-14T10:41:04.510Z,13.53
2018-11-14T10:43:42.092Z,13.49
2018-11-14T10:46:34.204Z,13.34
2018-11-14T10:49:08.109Z,13.31
2018-11-14T10:51:48.902Z,13.25
2018-11-14T10:54:22.955Z,13.39
2018-11-14T10:56:55.961Z,13.39
2018-11-14T10:59:33.189Z,13.47
2018-11-14T11:02:13.437Z,13.45
2018-11-14T11:04:53.532Z,13.42
2018-11-14T11:07:33.735Z,13.62
2018-11-14T11:10:13.498Z,13.92
2018-11-14T11:12:53.200Z,14.20
2018-11-14T11:15:50.101Z,14.23
2018-11-14T11:18:25.723Z,14.42
2018-11-14T11:21:00.394Z,14.60
2018-11-14T11:23:34.757Z,14.57
2018-11-14T11:26:09.906Z,14.48
2018-11-14T11:28:44.172Z,14.45
2018-11-14T11:31:20.104Z,14.42
2018-11-14T11:33:55.756Z,14.50
2018-11-14T11:36:29.986Z,14.67
2018-11-14T11:39:10.476Z,14.71
2018-11-14T11:41:45.242Z,14.68
2018-11-14T11:44:19.819Z,14.87
2018-11-14T11:46:55.917Z,14.98
2018-11-14T11:49:29.315Z,15.06
2018-11-14T11:52:05.513Z,15.10
2018-11-14T11:54:38.345Z,15.16
2018-11-14T11:57:20.615Z,14.99
2018-11-14T11:59:53.913Z,14.97
2018-11-14T12:02:28.983Z,14.92
2018-11-14T12:05:03.637Z,14.87
2018-11-14T12:07:41.295Z,14.75
2018-11-14T12:10:15.014Z,14.65
2018-11-14T12:12:48.256Z,14.66
2018-11-14T12:15:21.270Z,14.78
2018-11-14T12:17:56.073Z,14.87
2018-11-14T12:20:31.545Z,14.95
2018-11-14T12:23:14.421Z,14.88
2018-11-14T12:25:56.749Z,14.91
2018-11-14T12:28:32.380Z,15.01
2018-11-14T12:31:09.342Z,14.97
2018-11-14T12:33:44.296Z,14.81
2018-11-14T12:36:17.992Z,14.81
2018-11-14T12:38:52.782Z,14.73
2018-11-14T12:41:28.658Z,14.57
2018-11-14T12:44:01.280Z,14.51
2018-11-14T12:46:37.669Z,14.58
2018-11-14T12:49:10.666Z,14.63
2018-11-14T12:51:46.736Z,14.83
2018-11-14T12:54:19.389Z,14.94
2018-11-14T12:56:54.077Z,14.85
2018-11-14T12:59:32.338Z,14.81
2018-11-14T13:02:07.338Z,14.81
2018-11-14T13:04:44.653Z,14.82
2018-11-14T13:07:18.453Z,14.76
2018-11-14T13:09:52.428Z,14.72
2018-11-14T13:12:30.632Z,14.68
2018-11-14T13:15:06.533Z,14.61
2018-11-14T13:17:39.913Z,14.50
2018-11-14T13:20:17.878Z,14.42
2018-11-14T13:22:52.721Z,14.36
2018-11-14T13:25:30.873Z,14.32
2018-11-14T13:28:06.065Z,14.28
2018-11-14T13:30:40.082Z,14.23
2018-11-14T13:33:17.823Z,14.16
2018-11-14T13:35:58.762Z,14.13
2018-11-14T13:38:33.738Z,14.13
2018-11-14T13:41:09.827Z,14.20
2018-11-14T13:43:46.947Z,14.24
2018-11-14T13:46:20.283Z,14.14
2018-11-14T13:48:56.388Z,14.07
2018-11-14T13:51:34.810Z,14.01
2018-11-14T13:54:10.681Z,13.98
2018-11-14T13:56:45.132Z,13.95
2018-11-14T13:59:19.832Z,13.98
2018-11-14T14:01:57.443Z,14.08
2018-11-14T14:04:35.577Z,14.12
2018-11-14T14:07:10.307Z,14.08
2018-11-14T14:09:44.807Z,14.03
2018-11-14T14:12:23.744Z,14.03
2018-11-14T14:14:57.346Z,13.95
2018-11-14T14:17:32.959Z,13.93
2018-11-14T14:20:09.159Z,13.87
2018-11-14T14:22:52.027Z,13.83
2018-11-14T14:25:31.008Z,13.74
2018-11-14T14:28:10.231Z,13.69
2018-11-14T14:30:47.727Z,13.63
2018-11-14T14:33:23.140Z,13.62
2018-11-14T14:36:01.644Z,13.50
2018-11-14T14:38:38.353Z,13.35
2018-11-14T14:41:12.346Z,13.24
2018-11-14T14:43:50.355Z,13.15
2018-11-14T14:46:26.559Z,13.05
2018-11-14T14:49:01.516Z,12.97
2018-11-14T14:51:43.021Z,12.90
2018-11-14T14:54:26.834Z,12.79
2018-11-14T14:57:02.404Z,12.70
2018-11-14T14:59:43.521Z,12.62
2018-11-14T15:02:19.317Z,12.55
2018-11-14T15:04:53.718Z,12.43
2018-11-14T15:07:32.032Z,12.32
2018-11-14T15:10:18.591Z,12.21
2018-11-14T15:13:03.377Z,12.12
2018-11-14T15:15:39.608Z,12.06
2018-11-14T15:18:18.427Z,11.98
2018-11-14T15:20:54.738Z,11.89
2018-11-14T15:23:29.816Z,11.82
2018-11-14T15:26:08.414Z,11.78
2018-11-14T15:28:48.139Z,11.73
2018-11-14T15:31:22.159Z,11.67
2018-11-14T15:33:59.075Z,11.59
2018-11-14T15:36:36.605Z,11.49
2018-11-14T15:39:13.154Z,11.35
2018-11-14T15:41:51.371Z,11.20
2018-11-14T15:44:26.627Z,11.04
2018-11-14T15:47:09.615Z,10.88
2018-11-14T15:49:42.946Z,10.73
2018-11-14T15:52:16.747Z,10.62
2018-11-14T15:54:53.679Z,10.49
2018-11-14T15:57:27.118Z,10.41
2018-11-14T16:00:18.412Z,10.34
2018-11-14T16:02:54.306Z,10.23
2018-11-14T16:05:33.060Z,10.15
2018-11-14T16:08:15.676Z,10.16
2018-11-14T16:10:55.017Z,10.17
2018-11-14T16:13:30.023Z,10.14
2018-11-14T16:16:04.855Z,10.10
2018-11-14T16:18:43.111Z,10.05
2018-11-14T16:21:18.432Z,9.96
2018-11-14T16:23:53.761Z,9.93
2018-11-14T16:26:33.587Z,9.90
2018-11-14T16:29:10.012Z,9.95
2018-11-14T16:31:49.228Z,9.91
2018-11-14T16:34:36.170Z,9.85
2018-11-14T16:37:09.761Z,9.81
2018-11-14T16:39:50.536Z,9.79
2018-11-14T16:42:29.643Z,9.76
2018-11-14T16:45:13.564Z,9.66
2018-11-14T16:47:50.055Z,9.56
2018-11-14T16:50:27.221Z,9.56
2018-11-14T16:53:08.147Z,9.52
2018-11-14T16:55:45.396Z,9.53
2018-11-14T16:58:21.479Z,9.51
2018-11-14T17:00:55.455Z,9.51
2018-11-14T17:03:28.170Z,9.52
2018-11-14T17:06:03.576Z,9.55
2018-11-14T17:08:39.186Z,9.54
2018-11-14T17:11:15.862Z,9.52
2018-11-14T17:13:51.916Z,9.55
2018-11-14T17:16:29.355Z,9.53
2018-11-14T17:19:06.992Z,9.52
2018-11-14T17:21:42.024Z,9.43
2018-11-14T17:24:20.647Z,9.43
2018-11-14T17:26:57.017Z,9.53
2018-11-14T17:29:31.990Z,9.52
2018-11-14T17:32:07.764Z,9.49
2018-11-14T17:34:48.948Z,9.41
2018-11-14T17:37:24.465Z,9.33
2018-11-14T17:40:01.601Z,9.31
2018-11-14T17:42:43.559Z,9.31
2018-11-14T17:45:23.059Z,9.27
2018-11-14T17:48:00.090Z,9.25
2018-11-14T17:50:44.537Z,9.15
2018-11-14T17:53:26.113Z,9.17
2018-11-14T17:56:04.691Z,9.21
2018-11-14T17:58:38.694Z,9.20
2018-11-14T18:01:17.104Z,9.24
2018-11-14T18:03:54.664Z,9.23
2018-11-14T18:06:28.797Z,9.24
2018-11-14T18:09:04.465Z,9.41
2018-11-14T18:11:40.830Z,9.65
2018-11-14T18:14:26.529Z,9.90
2018-11-14T18:17:03.600Z,9.88
2018-11-14T18:19:41.525Z,9.78
2018-11-14T18:22:22.354Z,9.53
2018-11-14T18:25:03.346Z,9.31
2018-11-14T18:27:39.853Z,9.18
2018-11-14T18:30:24.783Z,9.09
2018-11-14T18:33:04.338Z,9.14
2018-11-14T18:35:43.140Z,9.37
2018-11-14T18:38:21.678Z,9.38
2018-11-14T18:41:04.032Z,9.18
2018-11-14T18:43:39.844Z,9.02
2018-11-14T18:46:17.235Z,8.86
2018-11-14T18:48:54.649Z,8.71
2018-11-14T18:51:32.234Z,8.69
2018-11-14T18:54:11.531Z,8.62
2018-11-14T18:56:45.857Z,8.60
2018-11-14T18:59:22.088Z,8.51
2018-11-14T19:01:56.425Z,8.48
2018-11-14T19:04:31.480Z,8.44
2018-11-14T19:07:08.518Z,8.38
2018-11-14T19:09:42.490Z,8.34
2018-11-14T19:12:27.748Z,8.28
2018-11-14T19:15:16.323Z,8.24
2018-11-14T19:17:52.123Z,8.25
2018-11-14T19:20:32.641Z,8.23
2018-11-14T19:23:07.392Z,8.20
2018-11-14T19:25:40.989Z,8.22
2018-11-14T19:28:15.485Z,8.22
2018-11-14T19:30:53.931Z,8.17
2018-11-14T19:33:28.737Z,8.13
2018-11-14T19:36:02.765Z,8.08
2018-11-14T19:38:39.825Z,8.02
2018-11-14T19:41:16.670Z,7.98
2018-11-14T19:43:59.916Z,7.99
2018-11-14T19:46:34.252Z,7.99
2018-11-14T19:49:16.927Z,7.94
2018-11-14T19:51:54.027Z,7.88
2018-11-14T19:54:31.454Z,7.87
2018-11-14T19:57:09.072Z,7.87
2018-11-14T19:59:49.665Z,7.88
2018-11-14T20:02:27.727Z,7.88
2018-11-14T20:05:04.778Z,7.87
2018-11-14T20:07:42.130Z,7.87
2018-11-14T20:10:18.008Z,7.83
2018-11-14T20:13:01.551Z,7.76
2018-11-14T20:15:43.633Z,7.67
2018-11-14T20:18:24.062Z,7.62
2018-11-14T20:21:02.807Z,7.65
2018-11-14T20:23:38.455Z,7.63
2018-11-14T20:26:12.343Z,7.56
2018-11-14T20:28:48.451Z,7.51
2018-11-14T20:31:29.171Z,7.44
2018-11-14T20:34:06.408Z,7.37
2018-11-14T20:36:39.690Z,7.28
2018-11-14T20:39:20.336Z,7.25
2018-11-14T20:41:55.282Z,7.20
2018-11-14T20:44:32.523Z,7.19
2018-11-14T20:47:12.411Z,7.13
2018-11-14T20:49:46.702Z,7.12
2018-11-14T20:52:36.537Z,7.12
2018-11-14T20:55:14.522Z,7.05
2018-11-14T20:57:49.877Z,7.04
2018-11-14T21:00:29.250Z,7.04
2018-11-14T21:03:06.625Z,7.02
2018-11-14T21:08:37.929Z,7.09
2018-11-14T21:11:19.637Z,7.08
2018-11-14T21:13:57.230Z,7.09
2018-11-14T21:16:30.994Z,7.15
2018-11-14T21:19:11.505Z,7.14
2018-11-14T21:21:45.311Z,7.13
2018-11-14T21:24:21.555Z,7.12
2018-11-14T21:26:57.513Z,7.13
2018-11-14T21:29:34.267Z,7.13
2018-11-14T21:32:09.960Z,7.14
2018-11-14T21:34:48.272Z,7.08
2018-11-14T21:37:22.353Z,7.08
2018-11-14T21:39:56.190Z,7.12
2018-11-14T21:42:35.706Z,7.13
2018-11-14T21:45:17.365Z,7.13
2018-11-14T21:47:57.353Z,7.09
2018-11-14T21:50:32.764Z,6.93
2018-11-14T21:53:09.888Z,6.84
2018-11-14T21:55:44.501Z,6.78
2018-11-14T21:58:22.532Z,6.75
2018-11-14T22:00:56.022Z,6.77
2018-11-14T22:03:31.387Z,6.81
2018-11-14T22:06:05.169Z,6.79
2018-11-14T22:08:41.681Z,6.72
2018-11-14T22:11:15.937Z,6.70
2018-11-14T22:13:50.167Z,6.72
2018-11-14T22:16:24.672Z,6.66
2018-11-14T22:19:01.302Z,6.62
2018-11-14T22:21:37.087Z,6.64
2018-11-14T22:24:11.955Z,6.64
2018-11-14T22:26:45.430Z,6.69
2018-11-14T22:29:18.382Z,6.73
2018-11-14T22:31:53.351Z,6.81
2018-11-14T22:34:29.873Z,6.75
2018-11-14T22:37:03.512Z,6.66
2018-11-14T22:39:38.826Z,6.64
2018-11-14T22:42:16.026Z,6.56
2018-11-14T22:44:50.207Z,6.59
2018-11-14T22:47:25.621Z,6.52
2018-11-14T22:49:59.341Z,6.50
2018-11-14T22:52:33.295Z,6.52
2018-11-14T22:55:10.565Z,6.55
2018-11-14T22:57:45.494Z,6.52
2018-11-14T23:00:26.899Z,6.46
2018-11-14T23:03:02.229Z,6.45
2018-11-14T23:05:38.956Z,6.47
2018-11-14T23:08:14.878Z,6.45
2018-11-14T23:10:49.393Z,6.38
2018-11-14T23:13:22.894Z,6.41
2018-11-14T23:15:59.352Z,6.44
2018-11-14T23:18:33.057Z,6.43
2018-11-14T23:21:07.021Z,6.45
2018-11-14T23:23:41.511Z,6.47
2018-11-14T23:26:15.839Z,6.49
2018-11-14T23:28:51.557Z,6.49
2018-11-14T23:31:26.661Z,6.43
2018-11-14T23:34:04.021Z,6.40
2018-11-14T23:36:37.370Z,6.46
2018-11-14T23:39:12.669Z,6.50
2018-11-14T23:41:48.432Z,6.48
2018-11-14T23:44:23.311Z,6.49
2018-11-14T23:46:56.045Z,6.50
2018-11-14T23:49:31.260Z,6.53
2018-11-14T23:52:06.233Z,6.60
2018-11-14T23:54:40.180Z,6.62
2018-11-14T23:57:13.677Z,6.58
2018-11-14T23:59:46.361Z,6.58
